Time;durP1;ratioP1;P1;durP2;ratioP2;P2;SDS_P1;SDS_P2;PMS_P1;PMS_P2;Temp;Humidity;BMP_temperature;BMP_pressure;BME280_temperature;BME280_humidity;BME280_pressure;Samples;Min_cycle;Max_cycle;Signal;HPM_P1;HPM_P2
2021/04/17 00:00:32;;;;;;;4.28;2.65;;;5.90;57.90;;;;;;2261849;56;20933;-63
2021/04/17 00:03:00;;;;;;;4.50;2.28;;;5.80;58.60;;;;;;2262077;56;21020;-64
2021/04/17 00:05:29;;;;;;;3.22;1.90;;;5.80;58.20;;;;;;2260146;56;20960;-65
2021/04/17 00:07:56;;;;;;;3.90;2.20;;;5.80;58.20;;;;;;2261599;56;21517;-64
2021/04/17 00:10:25;;;;;;;5.20;2.10;;;5.80;58.30;;;;;;2240304;56;21056;-63
2021/04/17 00:12:51;;;;;;;4.22;2.08;;;5.70;58.20;;;;;;2250541;56;21024;-65
2021/04/17 00:15:20;;;;;;;3.65;1.80;;;5.70;58.20;;;;;;2254647;56;21429;-67
2021/04/17 00:17:47;;;;;;;4.45;2.12;;;5.60;58.10;;;;;;2271443;55;20983;-66
2021/04/17 00:20:14;;;;;;;6.10;2.10;;;5.60;58.10;;;;;;2491741;55;20968;-63
2021/04/17 00:22:40;;;;;;;6.47;2.10;;;5.60;58.20;;;;;;2254494;56;21394;-65
2021/04/17 00:25:07;;;;;;;5.10;2.03;;;5.60;58.30;;;;;;2238683;56;21514;-64
2021/04/17 00:27:33;;;;;;;3.55;2.10;;;5.50;58.20;;;;;;2468931;55;20994;-62
2021/04/17 00:30:00;;;;;;;3.35;1.95;;;5.50;58.20;;;;;;2242645;56;20969;-65
2021/04/17 00:32:26;;;;;;;4.82;1.95;;;5.50;58.30;;;;;;2243255;56;21825;-65
2021/04/17 00:34:52;;;;;;;4.65;2.17;;;5.40;58.30;;;;;;2261879;56;21712;-65
2021/04/17 00:37:19;;;;;;;4.03;2.20;;;5.40;58.30;;;;;;2262594;56;20945;-66
2021/04/17 00:39:45;;;;;;;4.90;2.37;;;5.30;58.30;;;;;;2262544;56;21052;-66
2021/04/17 00:42:11;;;;;;;4.25;2.40;;;5.30;58.30;;;;;;2262626;56;21000;-65
2021/04/17 00:44:37;;;;;;;4.87;2.67;;;5.30;58.40;;;;;;2490683;55;20993;-65
2021/04/17 00:47:05;;;;;;;4.72;2.40;;;5.30;58.40;;;;;;2262578;56;20977;-64
2021/04/17 00:49:32;;;;;;;5.62;3.22;;;5.20;58.40;;;;;;2261436;56;21828;-65
2021/04/17 00:51:59;;;;;;;4.40;2.70;;;5.20;58.40;;;;;;2490713;55;21036;-65
2021/04/17 00:54:26;;;;;;;4.90;2.83;;;5.20;58.40;;;;;;2262213;56;21024;-65
2021/04/17 00:56:52;;;;;;;5.05;2.83;;;5.20;58.40;;;;;;2265690;55;20932;-64
2021/04/17 00:59:19;;;;;;;4.70;2.75;;;5.10;58.40;;;;;;2490412;55;20917;-67
2021/04/17 01:01:48;;;;;;;5.20;2.83;;;5.10;58.50;;;;;;2262605;56;20945;-63
2021/04/17 01:04:39;;;;;;;5.00;2.60;;;5.10;58.60;;;;;;2491233;55;21018;-66
2021/04/17 01:07:17;;;;;;;5.03;2.87;;;5.00;58.50;;;;;;2491435;55;20972;-65
2021/04/17 01:09:49;;;;;;;4.68;2.97;;;5.00;58.60;;;;;;2261903;56;20936;-64
2021/04/17 01:12:21;;;;;;;5.22;2.83;;;5.00;58.80;;;;;;2262631;56;21032;-66
2021/04/17 01:14:49;;;;;;;6.43;3.17;;;5.00;58.80;;;;;;2491335;55;20945;-66
2021/04/17 01:17:19;;;;;;;4.70;2.80;;;4.90;58.80;;;;;;2263068;56;21005;-66
2021/04/17 01:21:42;;;;;;;4.95;2.85;;;4.90;58.90;;;;;;2490569;55;20964;-65
2021/04/17 01:24:15;;;;;;;5.80;3.08;;;4.90;58.90;;;;;;2264995;55;21000;-65
2021/04/17 01:26:41;;;;;;;;;;;4.90;58.90;;;;;;2265132;55;21517;-65
2021/04/17 01:29:08;;;;;;;4.35;2.45;;;4.80;58.50;;;;;;2477343;55;20361;-64
2021/04/17 01:31:34;;;;;;;5.82;3.22;;;4.80;58.90;;;;;;2262392;55;20941;-64
2021/04/17 01:34:02;;;;;;;4.75;2.87;;;4.80;59.00;;;;;;2490956;55;21009;-64
2021/04/17 01:36:28;;;;;;;5.57;3.17;;;4.80;59.10;;;;;;2490121;55;20949;-68
2021/04/17 01:39:17;;;;;;;5.93;2.70;;;4.80;59.10;;;;;;2263048;56;20976;-67
2021/04/17 01:41:49;;;;;;;5.32;3.00;;;4.80;59.00;;;;;;2265602;55;21032;-64
2021/04/17 01:44:24;;;;;;;5.10;3.10;;;4.70;59.10;;;;;;2466814;55;20972;-65
2021/04/17 01:46:54;;;;;;;5.18;2.80;;;4.70;59.10;;;;;;2261621;56;21448;-64
2021/04/17 01:49:22;;;;;;;5.00;2.75;;;4.70;59.20;;;;;;2491268;55;21023;-65
2021/04/17 01:51:49;;;;;;;4.65;2.62;;;4.70;59.20;;;;;;2262154;55;20969;-65
2021/04/17 01:54:27;;;;;;;5.37;3.22;;;4.70;59.20;;;;;;2248050;56;20976;-66
2021/04/17 01:56:58;;;;;;;5.93;3.15;;;4.60;59.00;;;;;;2491435;55;20996;-64
2021/04/17 01:59:24;;;;;;;5.03;2.87;;;4.60;59.10;;;;;;2489750;55;21008;-66
2021/04/17 02:01:51;;;;;;;5.28;2.87;;;4.60;59.10;;;;;;2266432;55;21031;-66
2021/04/17 02:04:21;;;;;;;5.72;3.33;;;4.50;59.10;;;;;;2483675;55;21497;-64
2021/04/17 02:06:49;;;;;;;5.82;3.35;;;4.50;59.10;;;;;;2258584;55;20957;-63
2021/04/17 02:09:15;;;;;;;5.65;3.15;;;4.50;59.20;;;;;;2227552;56;20978;-63
2021/04/17 02:11:42;;;;;;;6.07;3.22;;;4.50;59.20;;;;;;2242162;55;21092;-63
2021/04/17 02:14:08;;;;;;;5.07;2.92;;;4.50;59.20;;;;;;2248040;56;21022;-65
2021/04/17 02:16:56;;;;;;;5.82;3.37;;;4.50;59.20;;;;;;2224739;57;20966;-66
2021/04/17 02:20:36;;;;;;;6.55;3.50;;;4.40;59.10;;;;;;2256399;56;21008;-66
2021/04/17 02:23:02;;;;;;;7.00;3.47;;;4.40;59.00;;;;;;2243687;56;21063;-65
2021/04/17 02:25:29;;;;;;;6.80;3.65;;;4.40;59.20;;;;;;2243315;56;21001;-63
2021/04/17 02:27:55;;;;;;;6.00;3.87;;;4.30;59.30;;;;;;2465681;55;21053;-65
2021/04/17 02:30:22;;;;;;;5.97;3.55;;;4.30;59.40;;;;;;2253095;56;21053;-63
2021/04/17 02:32:48;;;;;;;6.50;3.75;;;4.30;59.50;;;;;;2258095;56;20972;-66
2021/04/17 02:35:14;;;;;;;6.07;3.65;;;4.30;59.50;;;;;;2236832;55;21040;-66
2021/04/17 02:37:46;;;;;;;5.37;3.20;;;4.30;59.50;;;;;;2472778;55;21480;-65
2021/04/17 02:40:15;;;;;;;5.40;3.10;;;4.30;59.50;;;;;;2241325;56;20991;-66
2021/04/17 02:42:41;;;;;;;5.93;3.65;;;4.20;59.50;;;;;;2464782;55;21002;-65
2021/04/17 02:45:08;;;;;;;7.03;3.55;;;4.20;59.50;;;;;;2481535;55;21504;-65
2021/04/17 02:47:35;;;;;;;6.85;4.22;;;4.20;59.60;;;;;;2237104;55;20983;-63
2021/04/17 02:50:04;;;;;;;6.53;3.75;;;4.20;59.60;;;;;;2461297;55;21388;-64
2021/04/17 02:52:32;;;;;;;8.13;4.50;;;4.20;59.70;;;;;;2237317;56;21039;-66
2021/04/17 02:55:09;;;;;;;6.03;3.58;;;4.20;59.70;;;;;;2460521;55;20959;-65
2021/04/17 02:57:35;;;;;;;7.47;4.28;;;4.20;59.70;;;;;;2266000;55;20961;-65
2021/04/17 03:00:06;;;;;;;6.35;3.33;;;4.20;59.70;;;;;;2245003;57;20998;-64
2021/04/17 03:02:32;;;;;;;5.10;3.03;;;4.20;59.70;;;;;;2453511;55;21107;-66
2021/04/17 03:04:59;;;;;;;5.72;3.40;;;4.20;59.70;;;;;;2237165;56;20995;-65
2021/04/17 03:07:26;;;;;;;4.60;3.03;;;4.10;59.60;;;;;;2237083;56;20927;-63
2021/04/17 03:09:52;;;;;;;5.82;3.40;;;4.10;59.60;;;;;;2479724;55;20980;-66
2021/04/17 03:12:21;;;;;;;6.82;4.05;;;4.10;59.60;;;;;;2235343;56;20970;-64
2021/04/17 03:14:47;;;;;;;6.28;3.65;;;4.10;59.60;;;;;;2243393;56;21728;-66
2021/04/17 03:17:14;;;;;;;8.73;3.60;;;4.00;59.60;;;;;;2478568;55;20963;-63
2021/04/17 03:19:41;;;;;;;7.03;3.75;;;4.10;59.70;;;;;;2263303;55;21903;-64
2021/04/17 03:22:09;;;;;;;5.95;3.47;;;4.00;59.80;;;;;;2262823;55;20949;-62
2021/04/17 03:24:36;;;;;;;7.50;4.50;;;4.00;59.90;;;;;;2236573;56;20987;-66
2021/04/17 03:27:03;;;;;;;6.03;3.80;;;4.00;60.00;;;;;;2260279;55;21009;-65
2021/04/17 03:29:29;;;;;;;7.03;4.22;;;4.00;60.10;;;;;;2486407;55;20932;-66
2021/04/17 03:31:56;;;;;;;6.18;3.50;;;4.00;60.10;;;;;;2472969;55;20951;-65
2021/04/17 03:34:22;;;;;;;7.12;3.90;;;4.00;60.10;;;;;;2460219;55;21004;-64
2021/04/17 03:36:49;;;;;;;7.95;3.80;;;4.00;60.10;;;;;;2236734;56;21023;-68
2021/04/17 03:39:15;;;;;;;6.97;3.95;;;4.00;60.10;;;;;;2236908;56;20939;-66
2021/04/17 03:41:42;;;;;;;5.90;3.72;;;4.00;60.00;;;;;;2475825;55;20925;-64
2021/04/17 03:44:09;;;;;;;6.40;3.83;;;4.00;60.00;;;;;;2259795;56;21421;-63
2021/04/17 03:46:35;;;;;;;6.25;3.55;;;3.90;59.90;;;;;;2260076;56;21047;-64
2021/04/17 03:49:04;;;;;;;7.65;3.95;;;3.90;60.00;;;;;;2245974;56;20951;-65
2021/04/17 03:51:30;;;;;;;6.60;3.70;;;3.90;60.10;;;;;;2460438;55;21040;-64
2021/04/17 03:53:58;;;;;;;6.55;3.95;;;3.90;60.10;;;;;;2472283;55;21056;-67
2021/04/17 03:56:24;;;;;;;7.75;4.00;;;3.90;60.10;;;;;;2270303;55;21130;-64
2021/04/17 03:58:51;;;;;;;7.50;4.22;;;3.90;60.20;;;;;;2481165;55;21541;-64
2021/04/17 04:01:19;;;;;;;6.55;3.97;;;3.90;60.20;;;;;;2223230;56;20930;-65
2021/04/17 04:03:46;;;;;;;7.80;4.28;;;3.90;60.20;;;;;;2258243;57;20983;-66
2021/04/17 04:06:14;;;;;;;7.65;4.55;;;3.90;60.30;;;;;;2453394;55;20949;-64
2021/04/17 04:08:40;;;;;;;6.87;3.95;;;3.90;60.30;;;;;;2479917;55;20941;-65
2021/04/17 04:11:10;;;;;;;7.80;4.20;;;3.90;60.40;;;;;;2254160;56;21013;-65
2021/04/17 04:13:38;;;;;;;7.75;4.53;;;3.90;60.50;;;;;;2244779;56;21446;-63
2021/04/17 04:16:04;;;;;;;8.43;5.15;;;3.90;60.50;;;;;;2478323;55;21465;-64
2021/04/17 04:18:32;;;;;;;8.43;4.90;;;3.90;60.60;;;;;;2485565;55;21029;-66
2021/04/17 04:20:58;;;;;;;6.22;3.80;;;3.90;60.70;;;;;;2246049;56;20950;-66
2021/04/17 04:23:24;;;;;;;8.18;4.62;;;3.90;60.70;;;;;;2240279;56;20937;-64
2021/04/17 04:25:52;;;;;;;8.57;4.97;;;3.90;60.80;;;;;;2461047;55;20941;-64
2021/04/17 04:28:18;;;;;;;8.10;4.72;;;3.90;60.80;;;;;;2236533;56;20972;-64
2021/04/17 04:30:45;;;;;;;8.38;4.68;;;3.90;60.90;;;;;;2253413;56;21008;-66
2021/04/17 04:33:11;;;;;;;8.10;5.00;;;3.90;61.00;;;;;;2245123;56;21049;-64
2021/04/17 04:35:38;;;;;;;8.90;5.22;;;4.00;61.10;;;;;;2245156;56;20978;-63
2021/04/17 04:38:05;;;;;;;9.65;5.22;;;4.00;61.20;;;;;;2473721;55;20953;-67
2021/04/17 04:40:32;;;;;;;8.13;4.62;;;4.00;61.20;;;;;;2472453;55;20975;-66
2021/04/17 04:43:00;;;;;;;7.78;4.60;;;4.00;61.20;;;;;;2480914;55;20963;-67
2021/04/17 04:45:27;;;;;;;11.43;6.07;;;4.00;61.20;;;;;;2458698;55;21007;-65
2021/04/17 04:47:56;;;;;;;11.38;6.18;;;4.10;61.20;;;;;;2261387;55;25386;-64
2021/04/17 04:50:23;;;;;;;9.68;5.68;;;4.10;61.20;;;;;;2460752;55;20980;-66
2021/04/17 04:52:49;;;;;;;8.60;4.78;;;4.10;61.20;;;;;;2460811;55;20927;-66
2021/04/17 04:55:16;;;;;;;8.85;4.85;;;4.10;61.20;;;;;;2475678;55;20980;-65
2021/04/17 04:57:45;;;;;;;9.38;5.22;;;4.10;61.40;;;;;;2245259;56;20999;-67
2021/04/17 05:00:12;;;;;;;9.13;5.62;;;4.10;61.50;;;;;;2258276;55;21381;-63
2021/04/17 05:02:38;;;;;;;8.70;4.40;;;4.10;61.50;;;;;;2462877;55;20999;-65
2021/04/17 05:05:06;;;;;;;8.55;5.12;;;4.20;61.70;;;;;;2428363;56;20940;-64
2021/04/17 05:07:33;;;;;;;8.13;4.62;;;4.20;61.70;;;;;;2249912;56;21005;-63
2021/04/17 05:09:59;;;;;;;8.82;5.12;;;4.20;61.80;;;;;;2262174;55;20936;-63
2021/04/17 05:12:26;;;;;;;8.23;4.93;;;4.30;61.90;;;;;;2262428;55;21072;-65
2021/04/17 05:14:52;;;;;;;8.30;5.00;;;4.30;62.00;;;;;;2278800;55;20986;-66
2021/04/17 05:17:21;;;;;;;8.02;4.70;;;4.30;62.10;;;;;;2282911;55;20938;-66
2021/04/17 05:19:47;;;;;;;8.35;5.03;;;4.40;62.30;;;;;;2511701;55;21398;-64
2021/04/17 05:22:13;;;;;;;8.48;5.18;;;4.50;62.50;;;;;;2266120;56;21121;-64
2021/04/17 05:24:42;;;;;;;9.63;4.90;;;4.50;62.60;;;;;;2260412;55;21000;-65
2021/04/17 05:27:10;;;;;;;10.07;5.37;;;4.60;62.70;;;;;;2492153;55;21016;-65
2021/04/17 05:29:44;;;;;;;9.73;5.75;;;4.60;62.60;;;;;;2262509;55;21453;-66
2021/04/17 05:32:10;;;;;;;8.65;5.15;;;4.70;62.70;;;;;;2509520;55;20934;-65
2021/04/17 05:34:37;;;;;;;8.38;5.07;;;4.70;62.80;;;;;;2494528;55;20952;-67
2021/04/17 05:37:05;;;;;;;8.80;5.12;;;4.80;63.00;;;;;;2503908;55;21109;-66
2021/04/17 05:39:31;;;;;;;9.18;5.50;;;4.90;63.10;;;;;;2266242;55;20944;-66
2021/04/17 05:41:58;;;;;;;10.00;5.37;;;4.90;63.20;;;;;;2507019;55;21065;-64
2021/04/17 05:44:27;;;;;;;9.55;5.40;;;5.00;63.20;;;;;;2278845;55;21577;-66
2021/04/17 05:46:54;;;;;;;8.30;4.62;;;5.10;63.30;;;;;;2507225;55;21628;-63
2021/04/17 05:49:20;;;;;;;9.27;4.57;;;5.10;63.20;;;;;;2270587;55;21020;-68
2021/04/17 05:51:47;;;;;;;7.82;4.57;;;5.20;63.30;;;;;;2262380;55;21008;-63
2021/04/17 05:54:14;;;;;;;7.22;4.32;;;5.30;63.40;;;;;;2490570;55;20924;-64
2021/04/17 05:56:40;;;;;;;7.78;4.68;;;5.30;63.30;;;;;;2262077;55;21024;-67
2021/04/17 05:59:07;;;;;;;7.00;4.45;;;5.40;63.20;;;;;;2500014;55;20954;-66
2021/04/17 06:01:33;;;;;;;8.07;4.43;;;5.40;63.00;;;;;;2499561;55;20960;-67
2021/04/17 06:04:00;;;;;;;7.53;4.72;;;5.50;63.00;;;;;;2491354;55;21401;-65
2021/04/17 06:06:26;;;;;;;8.25;5.15;;;5.50;63.10;;;;;;2262151;55;21044;-65
2021/04/17 06:08:52;;;;;;;7.50;4.87;;;5.60;63.20;;;;;;2507565;55;20938;-67
2021/04/17 06:11:22;;;;;;;9.27;5.60;;;5.60;63.20;;;;;;2490403;55;21362;-64
2021/04/17 06:13:49;;;;;;;9.07;5.47;;;5.70;63.40;;;;;;2262352;55;21543;-66
2021/04/17 06:16:16;;;;;;;10.48;5.72;;;5.80;63.70;;;;;;2262297;55;21461;-63
2021/04/17 06:18:45;;;;;;;7.80;4.47;;;5.80;63.80;;;;;;2490355;55;21394;-65
2021/04/17 06:21:12;;;;;;;8.00;4.90;;;5.90;63.90;;;;;;2490866;55;21024;-66
2021/04/17 06:23:38;;;;;;;7.97;5.57;;;6.10;64.20;;;;;;2280020;55;21260;-67
2021/04/17 06:26:04;;;;;;;8.95;5.97;;;6.20;64.30;;;;;;2283673;55;21332;-66
2021/04/17 06:28:31;;;;;;;7.87;5.25;;;6.30;64.50;;;;;;2508744;55;20954;-68
2021/04/17 06:31:03;;;;;;;7.85;4.97;;;6.40;64.60;;;;;;2283244;55;20998;-65
2021/04/17 06:33:30;;;;;;;7.93;5.05;;;6.50;64.60;;;;;;2498908;55;21863;-64
2021/04/17 06:35:58;;;;;;;7.70;4.65;;;6.60;64.70;;;;;;2276015;55;21741;-63
2021/04/17 06:38:24;;;;;;;6.37;4.07;;;6.70;64.70;;;;;;2273524;55;20986;-67
2021/04/17 06:40:51;;;;;;;9.10;5.70;;;6.80;64.80;;;;;;2276155;55;20950;-66
2021/04/17 06:43:22;;;;;;;8.80;4.82;;;6.90;64.70;;;;;;2275071;55;21025;-65
2021/04/17 06:45:51;;;;;;;7.15;4.55;;;7.00;64.70;;;;;;2261816;55;20971;-67
2021/04/17 06:48:22;;;;;;;10.30;5.28;;;7.20;64.80;;;;;;2500473;55;20938;-65
2021/04/17 06:50:49;;;;;;;7.53;5.00;;;7.30;64.80;;;;;;2498799;55;20957;-63
2021/04/17 06:53:16;;;;;;;7.57;5.22;;;7.40;64.90;;;;;;2275047;55;20982;-65
2021/04/17 06:55:43;;;;;;;8.60;5.47;;;7.50;65.00;;;;;;2280266;55;21026;-65
2021/04/17 06:58:12;;;;;;;8.15;5.57;;;7.70;65.10;;;;;;2256819;56;20929;-63
2021/04/17 07:00:42;;;;;;;8.90;5.78;;;7.70;65.00;;;;;;2268714;55;20939;-66
2021/04/17 07:03:11;;;;;;;11.10;6.43;;;7.90;65.20;;;;;;2271613;55;20981;-64
2021/04/17 07:05:37;;;;;;;8.65;5.37;;;8.00;65.20;;;;;;2274697;55;21021;-66
2021/04/17 07:08:04;;;;;;;8.27;5.53;;;8.10;65.20;;;;;;2273371;55;21012;-66
2021/04/17 07:10:31;;;;;;;9.35;6.05;;;8.30;65.40;;;;;;2487177;55;21036;-65
2021/04/17 07:13:21;;;;;;;9.18;6.20;;;8.40;65.30;;;;;;2262150;55;20924;-67
2021/04/17 07:15:47;;;;;;;8.70;5.90;;;8.50;64.80;;;;;;2287583;55;20982;-64
2021/04/17 07:18:50;;;;;;;8.95;5.57;;;8.70;65.20;;;;;;2507629;55;21490;-67
2021/04/17 07:21:26;;;;;;;8.95;5.45;;;8.80;64.50;;;;;;2280950;55;21850;-65
2021/04/17 07:23:53;;;;;;;7.50;5.03;;;8.90;64.90;;;;;;2273115;55;20936;-65
2021/04/17 07:26:26;;;;;;;8.55;5.55;;;9.10;65.40;;;;;;2262245;55;21260;-65
2021/04/17 07:29:04;;;;;;;7.72;5.35;;;9.20;65.70;;;;;;2265761;55;20944;-64
2021/04/17 07:31:31;;;;;;;7.80;5.37;;;9.50;66.50;;;;;;2261738;55;20981;-67
2021/04/17 07:33:58;;;;;;;7.07;5.15;;;9.70;67.40;;;;;;2262299;55;20944;-66
2021/04/17 07:37:07;;;;;;;8.70;5.82;;;10.00;66.60;;;;;;2262053;55;20982;-67
2021/04/17 07:39:38;;;;;;;7.97;5.53;;;10.30;65.30;;;;;;2268509;55;21004;-66
2021/04/17 07:42:10;;;;;;;7.93;5.78;;;10.50;65.60;;;;;;2281389;55;21042;-66
2021/04/17 07:44:47;;;;;;;7.87;5.43;;;10.70;65.50;;;;;;2268825;56;21416;-66
2021/04/17 07:47:33;;;;;;;8.52;5.80;;;11.00;65.70;;;;;;2487042;55;21106;-67
2021/04/17 07:50:06;;;;;;;7.72;5.65;;;11.10;64.40;;;;;;2490703;55;21025;-67
2021/04/17 07:52:32;;;;;;;7.95;5.78;;;11.20;64.30;;;;;;2266884;55;20969;-68
2021/04/17 07:55:04;;;;;;;7.95;5.62;;;11.50;64.40;;;;;;2506559;55;20937;-67
2021/04/17 07:57:31;;;;;;;7.50;5.57;;;11.50;63.80;;;;;;2490135;55;20984;-65
2021/04/17 07:59:57;;;;;;;9.15;6.47;;;11.70;63.90;;;;;;2261430;55;21199;-68
2021/04/17 08:02:24;;;;;;;9.32;6.28;;;11.70;63.70;;;;;;2278719;55;20944;-67
2021/04/17 08:04:51;;;;;;;9.85;6.70;;;11.80;63.30;;;;;;2489752;55;20960;-67
2021/04/17 08:07:24;;;;;;;8.35;6.00;;;11.90;63.10;;;;;;2257233;56;20953;-65
2021/04/17 08:09:51;;;;;;;9.15;6.15;;;12.00;63.20;;;;;;2260921;55;20900;-69
2021/04/17 08:12:17;;;;;;;9.50;6.65;;;12.10;63.40;;;;;;2490013;55;21449;-67
2021/04/17 08:14:44;;;;;;;10.23;7.37;;;12.20;63.80;;;;;;2257168;55;21073;-68
2021/04/17 08:17:10;;;;;;;9.05;6.57;;;12.30;63.90;;;;;;2469873;55;21691;-66
2021/04/17 08:19:41;;;;;;;8.60;6.40;;;12.50;64.20;;;;;;2456403;55;21998;-66
2021/04/17 08:22:12;;;;;;;8.52;6.30;;;12.70;64.40;;;;;;2431373;55;22100;-66
2021/04/17 08:24:41;;;;;;;8.75;6.35;;;12.90;64.70;;;;;;2415042;55;20980;-66
2021/04/17 08:27:12;;;;;;;9.07;6.85;;;13.10;65.20;;;;;;2410684;55;21475;-66
2021/04/17 08:30:06;;;;;;;9.90;6.55;;;13.40;65.60;;;;;;2206436;55;22003;-66
2021/04/17 08:32:46;;;;;;;8.35;6.40;;;13.70;64.30;;;;;;2208197;56;22011;-65
2021/04/17 08:35:26;;;;;;;9.30;6.75;;;14.00;65.30;;;;;;2163017;55;21039;-66
2021/04/17 08:38:07;;;;;;;8.35;6.25;;;14.20;65.50;;;;;;2403188;55;21037;-67
2021/04/17 08:41:25;;;;;;;8.70;6.87;;;14.40;64.10;;;;;;2438239;54;20971;-66
2021/04/17 08:45:15;;;;;;;8.48;6.15;;;14.70;63.30;;;;;;2208019;55;21601;-66
2021/04/17 08:48:07;;;;;;;8.65;6.40;;;14.90;60.90;;;;;;2405467;55;21029;-66
2021/04/17 08:50:40;;;;;;;8.55;6.03;;;14.90;61.80;;;;;;2427644;54;21139;-67
2021/04/17 08:53:35;;;;;;;10.23;6.37;;;15.10;63.30;;;;;;2231056;55;21774;-66
2021/04/17 08:56:19;;;;;;;;;;;;;;;;;;;;;
2021/04/17 08:59:36;;;;;;;8.05;5.87;;;15.20;63.00;;;;;;2382358;55;20922;-66
2021/04/17 09:02:28;;;;;;;7.47;5.53;;;15.60;61.30;;;;;;2218130;55;21632;-68
2021/04/17 09:05:16;;;;;;;7.17;5.40;;;15.70;62.00;;;;;;2237584;55;21037;-66
2021/04/17 09:08:16;;;;;;;8.88;6.22;;;15.80;60.00;;;;;;2214002;55;21004;-66
2021/04/17 09:11:17;;;;;;;9.30;6.28;;;15.80;59.80;;;;;;2434524;55;22099;-66
2021/04/17 09:13:57;;;;;;;9.38;6.95;;;15.90;60.90;;;;;;2203490;55;20989;-66
2021/04/17 09:16:46;;;;;;;8.23;6.60;;;16.00;60.50;;;;;;2451206;54;21920;-66
2021/04/17 09:19:53;;;;;;;11.63;6.75;;;16.10;60.00;;;;;;2441170;54;22684;-66
2021/04/17 09:22:53;;;;;;;8.60;6.40;;;16.30;59.30;;;;;;2450095;55;21408;-65
2021/04/17 09:25:37;;;;;;;11.77;7.25;;;16.50;60.50;;;;;;2455591;55;20985;-67
2021/04/17 09:28:05;;;;;;;8.60;6.22;;;16.60;60.30;;;;;;2221186;56;20941;-67
2021/04/17 09:30:35;;;;;;;7.87;6.05;;;16.60;61.00;;;;;;2231566;55;21670;-66
2021/04/17 09:33:02;;;;;;;8.57;6.35;;;16.80;59.50;;;;;;2460556;55;22291;-66
2021/04/17 09:35:34;;;;;;;9.93;6.62;;;16.80;59.30;;;;;;2481657;55;20993;-66
2021/04/17 09:38:24;;;;;;;8.98;6.50;;;16.80;58.50;;;;;;2248299;55;21733;-66
2021/04/17 09:40:53;;;;;;;8.32;6.37;;;16.70;56.90;;;;;;2272975;55;21070;-68
2021/04/17 09:43:40;;;;;;;7.85;5.68;;;16.60;58.10;;;;;;2260595;55;21089;-68
2021/04/17 09:46:15;;;;;;;8.23;6.20;;;16.60;56.90;;;;;;2478783;55;20936;-68
2021/04/17 09:48:42;;;;;;;9.75;6.65;;;16.50;58.20;;;;;;2260459;55;20961;-66
2021/04/17 09:51:25;;;;;;;8.85;6.28;;;16.50;58.00;;;;;;2260150;55;20916;-67
2021/04/17 09:53:52;;;;;;;11.12;6.60;;;16.50;57.20;;;;;;2260427;55;21307;-66
2021/04/17 09:56:40;;;;;;;9.50;6.45;;;16.50;58.20;;;;;;2489625;55;20944;-66
2021/04/17 09:59:14;;;;;;;8.73;6.15;;;16.50;56.80;;;;;;2491168;55;20945;-66
2021/04/17 10:01:53;;;;;;;7.75;5.55;;;16.50;57.40;;;;;;2490880;55;21028;-66
2021/04/17 10:04:20;;;;;;;10.00;6.10;;;16.40;55.90;;;;;;2262445;55;20948;-66
2021/04/17 10:07:07;;;;;;;9.00;6.10;;;16.30;56.60;;;;;;2261865;55;21969;-66
2021/04/17 10:09:34;;;;;;;17.77;6.97;;;16.20;55.40;;;;;;2283053;55;20946;-68
2021/04/17 10:12:08;;;;;;;9.43;5.97;;;16.20;56.80;;;;;;2266213;55;21418;-66
2021/04/17 10:14:34;;;;;;;9.27;6.03;;;16.10;56.40;;;;;;2262120;55;21111;-68
2021/04/17 10:17:00;;;;;;;8.85;6.28;;;16.10;56.90;;;;;;2261626;55;20912;-68
2021/04/17 10:19:31;;;;;;;8.38;5.80;;;16.10;57.10;;;;;;2498489;55;21062;-66
2021/04/17 10:21:59;;;;;;;9.90;5.87;;;16.10;57.20;;;;;;2503833;55;21434;-68
2021/04/17 10:24:40;;;;;;;7.55;5.22;;;16.20;57.50;;;;;;2281209;55;21058;-69
2021/04/17 10:27:13;;;;;;;10.18;5.95;;;16.20;56.90;;;;;;2269301;55;20964;-67
2021/04/17 10:29:51;;;;;;;9.00;6.30;;;16.30;57.30;;;;;;2258134;56;21012;-67
2021/04/17 10:32:39;;;;;;;7.80;5.72;;;16.40;56.70;;;;;;2266478;55;20980;-67
2021/04/17 10:35:11;;;;;;;8.27;6.18;;;16.40;56.10;;;;;;2271398;55;21308;-67
2021/04/17 10:37:46;;;;;;;7.85;5.57;;;16.50;56.60;;;;;;2261855;55;20984;-68
2021/04/17 10:40:19;;;;;;;6.95;4.97;;;16.50;56.20;;;;;;2261596;55;20968;-67
2021/04/17 10:42:53;;;;;;;7.90;5.43;;;16.50;56.30;;;;;;2276289;55;20938;-67
2021/04/17 10:45:57;;;;;;;9.60;7.00;;;16.50;55.80;;;;;;2263291;55;20988;-69
2021/04/17 10:48:24;;;;;;;14.13;7.10;;;16.50;55.40;;;;;;2261863;55;20976;-68
2021/04/17 10:51:02;;;;;;;9.82;6.03;;;16.50;55.90;;;;;;2280046;55;20970;-68
2021/04/17 10:55:40;;;;;;;7.78;5.47;;;16.50;55.20;;;;;;2489894;55;21008;-67
2021/04/17 10:58:29;;;;;;;7.45;5.12;;;16.50;54.80;;;;;;2262176;55;20975;-68
2021/04/17 11:01:07;;;;;;;6.75;4.75;;;16.50;55.10;;;;;;2261969;55;20988;-68
2021/04/17 11:03:47;;;;;;;7.62;5.30;;;16.50;55.40;;;;;;2273964;55;20986;-68
2021/04/17 11:06:18;;;;;;;9.13;5.82;;;16.60;55.60;;;;;;2452128;55;21027;-67
2021/04/17 11:08:45;;;;;;;15.57;8.27;;;16.60;55.90;;;;;;2241841;56;20978;-65
2021/04/17 11:11:20;;;;;;;13.45;7.30;;;16.60;56.30;;;;;;2281881;55;21013;-66
2021/04/17 11:13:53;;;;;;;11.30;6.03;;;16.60;56.50;;;;;;2494465;55;20988;-68
2021/04/17 11:16:36;;;;;;;7.82;5.55;;;16.80;56.70;;;;;;2269241;55;21037;-67
2021/04/17 11:19:02;;;;;;;;;;;16.80;55.60;;;;;;2285107;55;20942;-66
2021/04/17 11:21:29;;;;;;;6.90;4.35;;;17.00;55.80;;;;;;2262875;56;20775;-68
2021/04/17 11:23:59;;;;;;;6.82;4.12;;;17.10;57.80;;;;;;2260673;55;21063;-68
2021/04/17 11:26:27;;;;;;;7.22;3.55;;;17.20;57.30;;;;;;2490491;55;21376;-66
2021/04/17 11:28:55;;;;;;;5.80;3.30;;;17.40;57.10;;;;;;2284225;55;21474;-66
2021/04/17 11:31:45;;;;;;;5.62;3.67;;;17.50;56.80;;;;;;2500716;55;20940;-68
2021/04/17 11:34:12;;;;;;;5.62;3.40;;;17.70;56.80;;;;;;2279113;55;21020;-66
2021/04/17 11:36:38;;;;;;;5.43;3.55;;;17.80;57.40;;;;;;2496561;55;20970;-66
2021/04/17 11:39:06;;;;;;;5.80;3.25;;;18.00;57.30;;;;;;2270581;55;21058;-66
2021/04/17 11:41:33;;;;;;;6.70;3.95;;;18.10;56.40;;;;;;2277336;55;20993;-66
2021/04/17 11:44:00;;;;;;;6.57;3.53;;;18.10;55.60;;;;;;2509897;55;21054;-67
2021/04/17 11:46:26;;;;;;;8.38;3.58;;;18.10;54.70;;;;;;2270299;55;21006;-66
2021/04/17 11:48:53;;;;;;;5.80;3.60;;;18.00;53.90;;;;;;2270825;55;21032;-66
2021/04/17 11:51:21;;;;;;;5.70;3.28;;;17.90;53.00;;;;;;2270197;55;20958;-66
2021/04/17 11:53:47;;;;;;;4.53;2.80;;;17.80;52.50;;;;;;2282126;55;20954;-66
2021/04/17 11:56:14;;;;;;;4.72;2.80;;;17.60;52.50;;;;;;2258170;56;21407;-66
2021/04/17 11:58:41;;;;;;;5.07;3.05;;;17.50;52.70;;;;;;2490150;55;20929;-66
2021/04/17 12:01:08;;;;;;;5.12;3.20;;;17.40;53.40;;;;;;2262490;55;21078;-66
2021/04/17 12:03:35;;;;;;;4.93;2.72;;;17.40;54.50;;;;;;2262373;55;20956;-66
2021/04/17 12:06:01;;;;;;;4.93;2.83;;;17.50;55.60;;;;;;2491210;55;21044;-66
2021/04/17 12:08:30;;;;;;;5.32;3.15;;;17.60;55.10;;;;;;2489632;55;21017;-66
2021/04/17 12:11:02;;;;;;;4.12;2.62;;;17.70;54.50;;;;;;2262227;55;20969;-65
2021/04/17 12:13:28;;;;;;;4.57;2.58;;;17.70;53.60;;;;;;2500356;55;20930;-65
2021/04/17 12:15:57;;;;;;;4.03;2.45;;;17.80;53.50;;;;;;2497835;55;20984;-67
2021/04/17 12:18:24;;;;;;;4.60;2.25;;;17.70;52.80;;;;;;2275569;55;20970;-67
2021/04/17 12:20:51;;;;;;;4.78;2.65;;;17.70;52.90;;;;;;2282933;55;20950;-66
2021/04/17 12:23:17;;;;;;;4.05;2.53;;;17.70;52.80;;;;;;2280911;55;21474;-67
2021/04/17 12:25:46;;;;;;;5.45;2.72;;;17.60;52.50;;;;;;2258410;56;21516;-69
2021/04/17 12:28:13;;;;;;;4.55;2.37;;;17.50;52.30;;;;;;2281623;55;21427;-67
2021/04/17 12:30:40;;;;;;;4.25;2.65;;;17.50;52.10;;;;;;2499214;55;21865;-68
2021/04/17 12:33:07;;;;;;;4.62;2.50;;;17.40;51.80;;;;;;2278064;55;21519;-68
2021/04/17 12:35:34;;;;;;;5.00;2.70;;;17.30;51.60;;;;;;2274985;55;21771;-65
2021/04/17 12:38:00;;;;;;;4.60;2.20;;;17.20;51.40;;;;;;2512344;55;21027;-67
2021/04/17 12:40:32;;;;;;;3.55;2.15;;;17.10;51.30;;;;;;2270342;55;20988;-66
2021/04/17 12:43:00;;;;;;;3.60;2.20;;;17.10;51.40;;;;;;2282768;55;21026;-64
2021/04/17 12:45:27;;;;;;;4.05;2.25;;;17.00;51.30;;;;;;2269528;55;21882;-67
2021/04/17 12:47:53;;;;;;;3.87;2.03;;;16.90;51.30;;;;;;2485747;55;20936;-68
2021/04/17 12:50:21;;;;;;;4.60;2.30;;;16.90;51.30;;;;;;2269803;55;21018;-67
2021/04/17 12:52:48;;;;;;;3.87;2.00;;;16.80;51.50;;;;;;2484273;55;20990;-67
2021/04/17 12:55:15;;;;;;;4.25;2.50;;;16.80;51.70;;;;;;2276621;55;21550;-65
2021/04/17 12:57:41;;;;;;;4.82;2.55;;;16.80;51.50;;;;;;2269944;55;21028;-64
2021/04/17 13:00:09;;;;;;;5.90;2.60;;;16.80;51.50;;;;;;2257767;55;20972;-67
2021/04/17 13:02:36;;;;;;;6.28;2.62;;;16.70;51.20;;;;;;2265327;55;20949;-67
2021/04/17 13:05:03;;;;;;;4.78;2.15;;;16.60;51.20;;;;;;2279854;55;21002;-65
2021/04/17 13:07:29;;;;;;;4.35;2.42;;;16.60;51.30;;;;;;2488202;55;20968;-68
2021/04/17 13:09:55;;;;;;;3.25;1.92;;;16.60;51.20;;;;;;2259285;55;21077;-65
2021/04/17 13:12:23;;;;;;;7.07;2.17;;;16.50;51.20;;;;;;2259712;55;21049;-66
2021/04/17 13:14:50;;;;;;;4.37;2.10;;;16.50;51.20;;;;;;2480232;55;20933;-66
2021/04/17 13:17:17;;;;;;;3.47;2.08;;;16.40;50.90;;;;;;2283053;55;21017;-66